createdAt,value
2022-08-08T00:00:54.390Z,55.99
2022-08-08T00:03:47.580Z,55.98
2022-08-08T00:06:41.759Z,56.05
2022-08-08T00:09:44.465Z,56.60
2022-08-08T00:12:23.715Z,56.49
2022-08-08T00:15:55.833Z,55.90
2022-08-08T00:18:17.937Z,56.97
2022-08-08T00:20:54.274Z,56.71
2022-08-08T00:23:51.205Z,56.99
2022-08-08T00:26:43.471Z,57.29
2022-08-08T00:29:45.471Z,57.08
2022-08-08T00:32:34.686Z,57.98
2022-08-08T00:35:59.915Z,57.43
2022-08-08T00:41:07.361Z,57.60
2022-08-08T00:42:42.156Z,57.52
2022-08-08T00:45:53.498Z,57.29
2022-08-08T00:49:22.099Z,56.78
2022-08-08T00:52:48.475Z,57.22
2022-08-08T00:56:19.230Z,57.29
2022-08-08T00:59:10.426Z,57.41
2022-08-08T01:03:16.042Z,57.42
2022-08-08T01:05:58.459Z,57.35
2022-08-08T01:09:36.032Z,57.76
2022-08-08T01:12:27.695Z,58.85
2022-08-08T01:15:44.108Z,58.08
2022-08-08T01:19:11.724Z,58.42
2022-08-08T01:22:35.187Z,58.41
2022-08-08T01:25:40.386Z,58.92
2022-08-08T01:28:28.025Z,58.87
2022-08-08T01:32:13.464Z,58.25
2022-08-08T01:34:54.623Z,57.77
2022-08-08T01:37:58.035Z,57.93
2022-08-08T01:40:40.650Z,57.04
2022-08-08T01:43:39.067Z,56.29
2022-08-08T01:46:11.996Z,55.99
2022-08-08T01:49:10.971Z,55.89
2022-08-08T01:52:41.221Z,56.55
2022-08-08T01:56:26.937Z,57.77
2022-08-08T01:58:38.646Z,57.32
2022-08-08T02:01:28.174Z,56.93
2022-08-08T02:04:28.933Z,57.49
2022-08-08T02:07:13.783Z,57.69
2022-08-08T02:10:44.996Z,57.65
2022-08-08T02:13:53.286Z,57.26
2022-08-08T02:16:29.115Z,57.72
2022-08-08T02:19:41.867Z,57.58
2022-08-08T02:22:32.543Z,58.78
2022-08-08T02:25:19.374Z,58.86
2022-08-08T02:28:10.843Z,58.13
2022-08-08T02:31:43.362Z,57.31
2022-08-08T02:34:33.212Z,57.04
2022-08-08T02:37:52.576Z,57.89
2022-08-08T02:40:56.938Z,57.89
2022-08-08T02:44:42.464Z,58.92
2022-08-08T02:47:23.986Z,58.04
2022-08-08T02:50:55.570Z,58.38
2022-08-08T02:54:06.760Z,57.95
2022-08-08T02:56:42.762Z,58.53
2022-08-08T02:59:57.745Z,57.94
2022-08-08T03:03:03.048Z,58.24
2022-08-08T03:05:45.397Z,58.13
2022-08-08T03:08:56.966Z,58.73
2022-08-08T03:12:14.378Z,58.97
2022-08-08T03:15:57.762Z,58.96
2022-08-08T03:18:32.084Z,58.94
2022-08-08T03:20:58.916Z,58.62
2022-08-08T03:23:56.149Z,58.92
2022-08-08T03:26:31.012Z,59.83
2022-08-08T03:29:04.569Z,59.60
2022-08-08T03:32:08.624Z,59.65
2022-08-08T03:34:37.701Z,59.33
2022-08-08T03:37:58.961Z,59.90
2022-08-08T03:40:02.278Z,59.63
2022-08-08T03:42:32.131Z,59.88
2022-08-08T03:44:59.605Z,59.64
2022-08-08T03:47:45.224Z,59.64
2022-08-08T03:50:24.594Z,60.03
2022-08-08T03:52:54.624Z,60.35
2022-08-08T03:55:57.485Z,59.93
2022-08-08T03:58:35.255Z,60.01
2022-08-08T04:01:02.107Z,60.24
2022-08-08T04:03:58.958Z,59.79
2022-08-08T04:06:29.814Z,60.68
2022-08-08T04:09:10.363Z,60.41
2022-08-08T04:11:58.141Z,60.27
2022-08-08T04:14:34.311Z,60.32
2022-08-08T04:17:06.916Z,60.21
2022-08-08T04:19:43.819Z,60.43
2022-08-08T04:22:10.857Z,60.30
2022-08-08T04:24:41.939Z,60.61
2022-08-08T04:27:19.742Z,61.01
2022-08-08T04:30:17.276Z,60.79
2022-08-08T04:32:44.877Z,60.10
2022-08-08T04:35:15.257Z,60.74
2022-08-08T04:37:42.184Z,60.85
2022-08-08T04:40:12.409Z,60.73
2022-08-08T04:42:55.993Z,60.99
2022-08-08T04:45:25.527Z,60.79
2022-08-08T04:47:53.883Z,60.85
2022-08-08T04:50:25.418Z,60.57
2022-08-08T04:53:00.477Z,60.62
2022-08-08T04:55:37.616Z,60.49
2022-08-08T04:58:17.544Z,59.84
2022-08-08T05:00:47.621Z,59.80
2022-08-08T05:03:18.862Z,59.47
2022-08-08T05:06:13.620Z,58.67
2022-08-08T05:08:51.844Z,59.68
2022-08-08T05:11:24.265Z,59.93
2022-08-08T05:13:57.935Z,60.53
2022-08-08T05:16:54.854Z,60.13
2022-08-08T05:20:04.263Z,59.29
2022-08-08T05:22:08.880Z,59.34
2022-08-08T05:24:38.470Z,59.12
2022-08-08T05:27:06.607Z,59.13
2022-08-08T05:29:36.086Z,59.12
2022-08-08T05:32:07.376Z,58.47
2022-08-08T05:34:50.785Z,58.95
2022-08-08T05:37:49.019Z,57.64
2022-08-08T05:40:17.621Z,57.17
2022-08-08T05:42:54.216Z,58.89
2022-08-08T05:45:25.395Z,58.54
2022-08-08T05:48:08.925Z,58.18
2022-08-08T05:50:38.496Z,58.36
2022-08-08T05:53:54.666Z,57.65
2022-08-08T05:56:07.752Z,57.44
2022-08-08T05:58:58.044Z,57.15
2022-08-08T06:01:55.590Z,57.05
2022-08-08T06:04:26.157Z,57.61
2022-08-08T06:07:00.082Z,57.21
2022-08-08T06:09:59.881Z,56.88
2022-08-08T06:12:29.730Z,57.18
2022-08-08T06:15:01.165Z,56.86
2022-08-08T06:18:18.719Z,56.78
2022-08-08T06:20:25.983Z,56.66
2022-08-08T06:22:53.903Z,57.14
2022-08-08T06:26:34.754Z,57.32
2022-08-08T06:28:18.327Z,57.14
2022-08-08T06:30:50.718Z,56.56
2022-08-08T06:33:36.979Z,55.65
2022-08-08T06:36:10.666Z,56.64
2022-08-08T06:38:41.043Z,54.90
2022-08-08T06:41:13.070Z,56.20
2022-08-08T06:43:57.438Z,56.37
2022-08-08T06:46:24.928Z,55.20
2022-08-08T06:48:57.619Z,54.72
2022-08-08T06:51:31.233Z,54.60
2022-08-08T06:54:13.375Z,55.18
2022-08-08T06:56:41.939Z,54.19
2022-08-08T06:59:14.227Z,54.59
2022-08-08T07:02:17.618Z,55.19
2022-08-08T07:05:11.993Z,54.53
2022-08-08T07:07:55.248Z,53.62
2022-08-08T07:10:24.880Z,53.41
2022-08-08T07:13:06.192Z,53.95
2022-08-08T07:16:06.315Z,54.12
2022-08-08T07:18:49.959Z,52.66
2022-08-08T07:21:22.337Z,53.10
2022-08-08T07:24:02.801Z,52.86
2022-08-08T07:26:35.276Z,53.37
2022-08-08T07:29:08.187Z,50.66
2022-08-08T07:31:40.579Z,52.23
2022-08-08T07:34:10.326Z,52.83
2022-08-08T07:36:50.454Z,52.54
2022-08-08T07:39:29.763Z,51.65
2022-08-08T07:42:18.999Z,51.62
2022-08-08T07:44:48.274Z,51.82
2022-08-08T07:47:18.314Z,50.68
2022-08-08T07:49:57.532Z,51.32
2022-08-08T07:52:27.223Z,51.58
2022-08-08T07:55:28.556Z,50.96
2022-08-08T07:58:18.080Z,51.09
2022-08-08T08:01:15.979Z,52.21
2022-08-08T08:04:03.871Z,50.43
2022-08-08T08:06:38.573Z,50.16
2022-08-08T08:09:41.802Z,50.55
2022-08-08T08:12:31.390Z,50.97
2022-08-08T08:15:07.095Z,49.52
2022-08-08T08:17:47.467Z,51.54
2022-08-08T08:20:18.586Z,49.97
2022-08-08T08:22:47.444Z,49.54
2022-08-08T08:25:17.029Z,50.73
2022-08-08T08:28:03.074Z,51.67
2022-08-08T08:30:30.655Z,50.51
2022-08-08T08:32:59.318Z,49.88
2022-08-08T08:35:29.887Z,49.56
2022-08-08T08:38:17.535Z,49.58
2022-08-08T08:40:51.175Z,50.92
2022-08-08T08:43:20.231Z,49.08
2022-08-08T08:45:58.131Z,48.94
2022-08-08T08:48:31.715Z,48.60
2022-08-08T08:51:03.281Z,49.28
2022-08-08T08:53:56.561Z,49.81
2022-08-08T08:56:25.585Z,48.36
2022-08-08T08:58:57.193Z,47.74
2022-08-08T09:01:32.305Z,48.91
2022-08-08T09:04:31.642Z,48.68
2022-08-08T09:06:59.602Z,48.83
2022-08-08T09:09:40.300Z,48.60
2022-08-08T09:12:19.934Z,48.61
2022-08-08T09:14:50.144Z,48.29
2022-08-08T09:17:19.658Z,49.02
2022-08-08T09:21:58.546Z,47.90
2022-08-08T09:22:47.705Z,48.27
2022-08-08T09:25:15.685Z,47.57
2022-08-08T09:27:57.427Z,46.74
2022-08-08T09:30:29.697Z,46.44
2022-08-08T09:33:54.047Z,47.25
2022-08-08T09:35:49.899Z,47.51
2022-08-08T09:38:56.264Z,46.01
2022-08-08T09:42:14.486Z,46.24
2022-08-08T09:45:03.848Z,46.37
2022-08-08T09:48:09.607Z,47.73
2022-08-08T09:50:32.549Z,46.09
2022-08-08T09:53:15.296Z,46.40
2022-08-08T09:56:05.128Z,46.99
2022-08-08T09:58:41.805Z,48.07
2022-08-08T10:01:59.547Z,47.51
2022-08-08T10:04:15.208Z,46.72
2022-08-08T10:07:07.538Z,44.87
2022-08-08T10:09:35.839Z,45.84
2022-08-08T10:12:38.215Z,45.03
2022-08-08T10:15:20.032Z,45.66
2022-08-08T10:18:05.494Z,45.43
2022-08-08T10:20:51.268Z,45.08
2022-08-08T10:23:45.017Z,44.85
2022-08-08T10:26:52.106Z,44.63
2022-08-08T10:29:58.461Z,43.27
2022-08-08T10:32:40.308Z,42.72
2022-08-08T10:36:06.289Z,43.17
2022-08-08T10:38:08.538Z,43.54
2022-08-08T10:40:38.807Z,43.95
2022-08-08T10:43:07.191Z,43.74
2022-08-08T10:45:56.644Z,43.31
2022-08-08T10:48:56.671Z,42.85
2022-08-08T10:51:31.530Z,42.86
2022-08-08T10:54:08.345Z,42.65
2022-08-08T10:56:43.290Z,43.98
2022-08-08T10:59:14.081Z,44.04
2022-08-08T11:01:49.404Z,44.06
2022-08-08T11:04:29.656Z,41.93
2022-08-08T11:07:07.089Z,39.44
2022-08-08T11:09:34.867Z,38.90
2022-08-08T11:12:13.352Z,41.26
2022-08-08T11:14:57.079Z,43.76
2022-08-08T11:17:58.511Z,42.45
2022-08-08T11:20:27.573Z,42.21
2022-08-08T11:23:05.747Z,41.67
2022-08-08T11:25:53.184Z,40.07
2022-08-08T11:28:29.081Z,41.25
2022-08-08T11:31:00.174Z,41.35
2022-08-08T11:33:53.135Z,42.29
2022-08-08T11:36:16.255Z,42.27
2022-08-08T11:38:55.638Z,41.80
2022-08-08T11:41:28.052Z,38.53
2022-08-08T11:44:00.827Z,38.43
2022-08-08T11:46:30.488Z,38.33
2022-08-08T11:49:01.545Z,40.20
2022-08-08T11:51:38.918Z,38.69
2022-08-08T11:54:27.443Z,38.64
2022-08-08T11:56:57.744Z,37.77
2022-08-08T12:00:01.791Z,38.58
2022-08-08T12:02:32.834Z,37.64
2022-08-08T12:05:13.451Z,37.38
2022-08-08T12:07:56.025Z,35.66
2022-08-08T12:10:33.617Z,37.21
2022-08-08T12:13:05.799Z,38.17
2022-08-08T12:15:49.393Z,39.64
2022-08-08T12:18:21.603Z,39.22
2022-08-08T12:20:54.287Z,37.44
2022-08-08T12:23:59.281Z,37.71
2022-08-08T12:26:50.253Z,38.01
2022-08-08T12:29:25.895Z,39.28
2022-08-08T12:32:19.870Z,39.54
2022-08-08T12:35:04.673Z,38.98
2022-08-08T12:38:01.678Z,40.19
2022-08-08T12:40:56.023Z,39.16
2022-08-08T12:43:46.558Z,37.41
2022-08-08T12:46:26.774Z,37.11
2022-08-08T12:49:25.148Z,37.87
2022-08-08T12:51:59.060Z,38.43
2022-08-08T12:54:41.026Z,39.46
2022-08-08T12:57:23.403Z,38.34
2022-08-08T13:00:05.744Z,38.42
2022-08-08T13:02:53.346Z,38.11
2022-08-08T13:05:26.203Z,39.81
2022-08-08T13:08:21.211Z,39.80
2022-08-08T13:10:57.251Z,38.71
2022-08-08T13:13:34.676Z,38.26
2022-08-08T13:16:25.998Z,38.26
2022-08-08T13:19:05.564Z,38.67
2022-08-08T13:21:53.731Z,37.64
2022-08-08T13:24:42.157Z,38.51
2022-08-08T13:27:17.448Z,38.18
2022-08-08T13:29:56.335Z,38.51
2022-08-08T13:32:28.679Z,38.15
2022-08-08T13:34:59.343Z,37.48
2022-08-08T13:38:05.401Z,39.35
2022-08-08T13:40:17.619Z,38.60
2022-08-08T13:42:53.706Z,38.46
2022-08-08T13:45:24.376Z,38.05
2022-08-08T13:48:02.928Z,38.08
2022-08-08T13:50:43.994Z,38.36
2022-08-08T13:53:34.077Z,37.78
2022-08-08T13:56:11.689Z,36.66
2022-08-08T13:58:57.656Z,37.88
2022-08-08T14:01:52.963Z,38.56
2022-08-08T14:04:27.590Z,39.13
2022-08-08T14:07:04.480Z,37.85
2022-08-08T14:10:04.578Z,38.42
2022-08-08T14:12:33.770Z,38.17
2022-08-08T14:15:02.977Z,37.78
2022-08-08T14:17:58.145Z,37.84
2022-08-08T14:20:56.578Z,37.50
2022-08-08T14:24:07.113Z,36.66
2022-08-08T14:26:11.098Z,37.52
2022-08-08T14:28:39.661Z,37.87
2022-08-08T14:31:11.410Z,37.53
2022-08-08T14:33:56.680Z,37.62
2022-08-08T14:36:38.796Z,36.27
2022-08-08T14:39:11.674Z,37.76
2022-08-08T14:41:54.368Z,36.79
2022-08-08T14:44:35.036Z,36.69
2022-08-08T14:47:02.640Z,37.11
2022-08-08T14:50:06.461Z,37.62
2022-08-08T14:52:48.258Z,36.92
2022-08-08T14:55:16.395Z,37.48
2022-08-08T14:58:03.269Z,36.93
2022-08-08T15:00:34.858Z,38.06
2022-08-08T15:03:14.767Z,38.01
2022-08-08T15:05:52.382Z,37.55
2022-08-08T15:08:34.607Z,38.62
2022-08-08T15:11:11.399Z,37.83
2022-08-08T15:14:00.931Z,37.19
2022-08-08T15:16:34.309Z,37.59
2022-08-08T15:19:03.010Z,38.13
2022-08-08T15:21:30.639Z,38.97
2022-08-08T15:23:58.279Z,38.33
2022-08-08T15:26:25.430Z,37.76
2022-08-08T15:28:54.347Z,38.00
2022-08-08T15:31:48.932Z,38.11
2022-08-08T15:34:29.280Z,38.62
2022-08-08T15:37:05.008Z,37.93
2022-08-08T15:39:39.450Z,38.90
2022-08-08T15:42:13.368Z,38.26
2022-08-08T15:44:55.522Z,39.43
2022-08-08T15:47:23.875Z,39.13
2022-08-08T15:49:53.153Z,38.42
2022-08-08T15:52:23.078Z,39.96
2022-08-08T15:54:53.008Z,38.95
2022-08-08T15:57:21.676Z,39.25
2022-08-08T16:00:14.167Z,38.65
2022-08-08T16:02:37.232Z,38.95
2022-08-08T16:05:13.901Z,39.14
2022-08-08T16:07:52.368Z,40.83
2022-08-08T16:13:20.818Z,38.81
2022-08-08T16:13:30.282Z,39.22
2022-08-08T16:16:03.344Z,37.96
2022-08-08T16:18:39.892Z,40.49
2022-08-08T16:21:20.667Z,38.51
2022-08-08T16:23:55.652Z,39.23
2022-08-08T16:26:34.255Z,38.17
2022-08-08T16:29:37.080Z,38.88
2022-08-08T16:32:08.246Z,38.36
2022-08-08T16:34:38.229Z,38.61
2022-08-08T16:37:06.278Z,38.12
2022-08-08T16:40:00.391Z,38.46
2022-08-08T16:42:20.751Z,39.10
2022-08-08T16:44:54.547Z,38.79
2022-08-08T16:47:40.070Z,38.67
2022-08-08T16:50:16.699Z,38.25
2022-08-08T16:55:05.138Z,38.46
2022-08-08T16:55:55.100Z,38.21
2022-08-08T16:58:29.379Z,38.63
2022-08-08T17:01:05.926Z,37.92
2022-08-08T17:03:58.567Z,38.03
2022-08-08T17:06:36.797Z,37.30
2022-08-08T17:09:07.602Z,37.46
2022-08-08T17:11:48.753Z,37.98
2022-08-08T17:14:19.494Z,38.46
2022-08-08T17:16:57.204Z,38.00
2022-08-08T17:19:29.830Z,37.32
2022-08-08T17:22:01.477Z,38.56
2022-08-08T17:24:30.897Z,37.22
2022-08-08T17:26:59.848Z,38.24
2022-08-08T17:29:33.835Z,37.75
2022-08-08T17:32:02.592Z,37.86
2022-08-08T17:34:36.051Z,37.18
2022-08-08T17:37:14.899Z,38.16
2022-08-08T17:40:04.826Z,38.42
2022-08-08T17:42:29.387Z,38.62
2022-08-08T17:44:58.297Z,38.21
2022-08-08T17:47:28.004Z,37.79
2022-08-08T17:50:01.309Z,38.17
2022-08-08T17:52:34.405Z,37.71
2022-08-08T17:55:05.627Z,38.40
2022-08-08T17:57:50.988Z,38.83
2022-08-08T18:00:25.824Z,40.93
2022-08-08T18:03:09.009Z,40.38
2022-08-08T18:05:48.147Z,40.42
2022-08-08T18:08:25.144Z,40.35
2022-08-08T18:11:14.892Z,41.16
2022-08-08T18:13:47.161Z,41.30
2022-08-08T18:16:17.092Z,41.65
2022-08-08T18:18:54.062Z,41.94
2022-08-08T18:21:59.390Z,41.48
2022-08-08T18:24:21.598Z,42.30
2022-08-08T18:26:54.787Z,42.62
2022-08-08T18:29:30.210Z,43.05
2022-08-08T18:32:07.316Z,42.46
2022-08-08T18:34:36.933Z,43.25
2022-08-08T18:37:08.516Z,43.51
2022-08-08T18:39:38.763Z,44.41
2022-08-08T18:42:15.685Z,43.34
2022-08-08T18:44:55.047Z,43.74
2022-08-08T18:47:25.447Z,44.43
2022-08-08T18:49:58.544Z,44.28
2022-08-08T18:52:27.551Z,44.75
2022-08-08T18:54:59.313Z,44.29
2022-08-08T18:57:41.213Z,44.68
2022-08-08T19:00:20.131Z,43.95
2022-08-08T19:02:56.803Z,44.41
2022-08-08T19:05:38.563Z,43.97
2022-08-08T19:08:25.063Z,44.56
2022-08-08T19:10:58.439Z,45.77
2022-08-08T19:13:53.414Z,45.39
2022-08-08T19:16:18.453Z,45.27
2022-08-08T19:18:53.321Z,45.22
2022-08-08T19:21:30.419Z,46.23
2022-08-08T19:23:58.970Z,46.12
2022-08-08T19:26:30.403Z,46.54
2022-08-08T19:28:59.575Z,46.18
2022-08-08T19:31:31.406Z,45.98
2022-08-08T19:34:36.340Z,45.50
2022-08-08T19:36:55.369Z,45.75
2022-08-08T19:39:25.682Z,46.87
2022-08-08T19:41:57.868Z,46.40
2022-08-08T19:44:43.019Z,46.60
2022-08-08T19:47:12.407Z,47.66
2022-08-08T19:49:39.622Z,47.87
2022-08-08T19:52:13.308Z,49.24
2022-08-08T19:54:43.063Z,49.58
2022-08-08T19:57:10.472Z,49.15
2022-08-08T19:59:42.004Z,49.63
2022-08-08T20:02:09.689Z,49.80
2022-08-08T20:04:38.465Z,48.54
2022-08-08T20:08:29.881Z,49.53
2022-08-08T20:09:58.787Z,49.50
2022-08-08T20:12:32.445Z,50.21
2022-08-08T20:15:16.586Z,50.70
2022-08-08T20:17:46.735Z,50.81
2022-08-08T20:20:19.728Z,50.68
2022-08-08T20:22:53.994Z,50.62
2022-08-08T20:25:22.173Z,50.98
2022-08-08T20:27:54.056Z,50.77
2022-08-08T20:30:52.780Z,50.71
2022-08-08T20:33:20.029Z,50.49
2022-08-08T20:35:58.707Z,50.74
2022-08-08T20:38:32.311Z,50.56
2022-08-08T20:41:12.229Z,50.92
2022-08-08T20:43:49.341Z,50.46
2022-08-08T20:46:25.567Z,50.50
2022-08-08T20:48:55.587Z,50.48
2022-08-08T20:51:27.212Z,50.75
2022-08-08T20:54:04.835Z,51.12
2022-08-08T20:57:04.001Z,51.50
2022-08-08T20:59:29.058Z,51.38
2022-08-08T21:02:06.887Z,51.81
2022-08-08T21:04:36.728Z,51.62
2022-08-08T21:07:08.368Z,51.66
2022-08-08T21:10:01.856Z,51.40
2022-08-08T21:12:38.195Z,51.17
2022-08-08T21:15:09.750Z,51.68
2022-08-08T21:17:37.712Z,51.80
2022-08-08T21:20:06.555Z,51.69
2022-08-08T21:22:33.827Z,51.26
2022-08-08T21:25:02.105Z,51.38
2022-08-08T21:27:39.036Z,51.77
2022-08-08T21:30:21.673Z,51.38
2022-08-08T21:32:51.184Z,51.70
2022-08-08T21:36:13.761Z,51.51
2022-08-08T21:38:08.510Z,51.80
2022-08-08T21:40:54.660Z,52.72
2022-08-08T21:43:22.398Z,52.55
2022-08-08T21:48:06.369Z,52.95
2022-08-08T21:48:41.822Z,53.27
2022-08-08T21:51:16.495Z,53.39
2022-08-08T21:54:31.632Z,53.23
2022-08-08T21:57:03.046Z,52.93
2022-08-08T22:00:02.865Z,53.54
2022-08-08T22:02:19.639Z,53.17
2022-08-08T22:04:56.115Z,53.17
2022-08-08T22:07:39.748Z,53.34
2022-08-08T22:10:10.124Z,53.57
2022-08-08T22:13:17.510Z,53.72
2022-08-08T22:15:59.698Z,53.94
2022-08-08T22:18:35.366Z,53.86
2022-08-08T22:21:14.137Z,54.42
2022-08-08T22:23:50.939Z,53.88
2022-08-08T22:26:31.004Z,54.38
2022-08-08T22:29:14.410Z,54.88
2022-08-08T22:32:01.875Z,54.53
2022-08-08T22:34:39.537Z,54.39
2022-08-08T22:37:14.879Z,54.73
2022-08-08T22:40:00.877Z,54.87
2022-08-08T22:42:31.954Z,54.94
2022-08-08T22:45:05.377Z,54.98
2022-08-08T22:47:41.248Z,55.20
2022-08-08T22:50:25.767Z,55.67
2022-08-08T22:54:27.645Z,55.25
2022-08-08T22:55:59.008Z,55.30
2022-08-08T22:58:34.192Z,55.97
2022-08-08T23:01:26.873Z,55.81
2022-08-08T23:03:56.614Z,55.78
2022-08-08T23:06:27.310Z,55.22
2022-08-08T23:08:58.944Z,54.38
2022-08-08T23:11:30.745Z,54.79
2022-08-08T23:14:19.328Z,54.89
2022-08-08T23:16:57.910Z,54.62
2022-08-08T23:19:32.240Z,54.88
2022-08-08T23:22:05.325Z,55.92
2022-08-08T23:24:36.126Z,55.36
2022-08-08T23:27:06.137Z,55.52
2022-08-08T23:29:33.591Z,55.68
2022-08-08T23:32:04.514Z,55.91
2022-08-08T23:34:33.233Z,55.83
2022-08-08T23:37:02.598Z,56.30
2022-08-08T23:39:42.130Z,55.76
2022-08-08T23:42:16.667Z,55.99
2022-08-08T23:44:43.623Z,55.64
2022-08-08T23:49:07.120Z,56.87
2022-08-08T23:50:03.169Z,56.71
2022-08-08T23:52:33.672Z,56.94
2022-08-08T23:55:14.007Z,56.01
2022-08-08T23:57:52.851Z,56.48
